sensor_id;sensor_type;location;lat;lon;timestamp;P1;durP1;ratioP1;P2;durP2;ratioP2
21601;SDS011;10963;50.934;4.668;2023-03-05T00:01:28;7.93;;;3.20;;
21601;SDS011;10963;50.934;4.668;2023-03-05T00:03:57;7.00;;;3.07;;
21601;SDS011;10963;50.934;4.668;2023-03-05T00:06:24;5.47;;;3.23;;
21601;SDS011;10963;50.934;4.668;2023-03-05T00:08:52;10.97;;;3.27;;
21601;SDS011;10963;50.934;4.668;2023-03-05T00:11:19;6.07;;;3.00;;
21601;SDS011;10963;50.934;4.668;2023-03-05T00:13:45;5.33;;;3.70;;
21601;SDS011;10963;50.934;4.668;2023-03-05T00:16:12;6.77;;;3.53;;
21601;SDS011;10963;50.934;4.668;2023-03-05T00:18:42;6.97;;;3.50;;
21601;SDS011;10963;50.934;4.668;2023-03-05T00:21:41;5.73;;;3.20;;
21601;SDS011;10963;50.934;4.668;2023-03-05T00:24:03;11.13;;;3.50;;
21601;SDS011;10963;50.934;4.668;2023-03-05T00:26:31;6.97;;;3.00;;
21601;SDS011;10963;50.934;4.668;2023-03-05T00:29:02;5.47;;;3.13;;
21601;SDS011;10963;50.934;4.668;2023-03-05T00:31:29;12.23;;;3.37;;
21601;SDS011;10963;50.934;4.668;2023-03-05T00:34:03;8.77;;;3.47;;
21601;SDS011;10963;50.934;4.668;2023-03-05T00:36:31;6.90;;;3.60;;
21601;SDS011;10963;50.934;4.668;2023-03-05T00:38:57;8.80;;;3.87;;
21601;SDS011;10963;50.934;4.668;2023-03-05T00:41:26;8.90;;;3.60;;
21601;SDS011;10963;50.934;4.668;2023-03-05T00:43:52;7.53;;;3.20;;
21601;SDS011;10963;50.934;4.668;2023-03-05T00:46:19;4.87;;;3.33;;
21601;SDS011;10963;50.934;4.668;2023-03-05T00:48:45;7.87;;;3.77;;
21601;SDS011;10963;50.934;4.668;2023-03-05T00:51:11;9.90;;;4.03;;
21601;SDS011;10963;50.934;4.668;2023-03-05T00:53:39;7.30;;;3.80;;
21601;SDS011;10963;50.934;4.668;2023-03-05T00:56:07;11.07;;;3.90;;
21601;SDS011;10963;50.934;4.668;2023-03-05T00:58:40;10.80;;;4.47;;
21601;SDS011;10963;50.934;4.668;2023-03-05T01:01:06;7.77;;;4.33;;
21601;SDS011;10963;50.934;4.668;2023-03-05T01:03:34;7.87;;;4.33;;
21601;SDS011;10963;50.934;4.668;2023-03-05T01:06:02;9.57;;;4.60;;
21601;SDS011;10963;50.934;4.668;2023-03-05T01:08:30;10.33;;;4.43;;
21601;SDS011;10963;50.934;4.668;2023-03-05T01:10:56;11.43;;;4.63;;
21601;SDS011;10963;50.934;4.668;2023-03-05T01:13:24;11.07;;;5.20;;
21601;SDS011;10963;50.934;4.668;2023-03-05T01:15:50;9.00;;;5.07;;
21601;SDS011;10963;50.934;4.668;2023-03-05T01:18:18;10.40;;;5.20;;
21601;SDS011;10963;50.934;4.668;2023-03-05T01:20:44;8.60;;;4.87;;
21601;SDS011;10963;50.934;4.668;2023-03-05T01:23:10;10.23;;;4.77;;
21601;SDS011;10963;50.934;4.668;2023-03-05T01:25:36;9.87;;;4.13;;
21601;SDS011;10963;50.934;4.668;2023-03-05T01:28:04;9.73;;;4.87;;
21601;SDS011;10963;50.934;4.668;2023-03-05T01:30:34;9.80;;;4.50;;
21601;SDS011;10963;50.934;4.668;2023-03-05T01:33:02;11.43;;;4.50;;
21601;SDS011;10963;50.934;4.668;2023-03-05T01:35:28;11.80;;;4.83;;
21601;SDS011;10963;50.934;4.668;2023-03-05T01:37:59;8.23;;;5.00;;
21601;SDS011;10963;50.934;4.668;2023-03-05T01:40:26;11.00;;;5.20;;
21601;SDS011;10963;50.934;4.668;2023-03-05T01:42:58;8.80;;;4.63;;
21601;SDS011;10963;50.934;4.668;2023-03-05T01:48:36;10.50;;;4.90;;
21601;SDS011;10963;50.934;4.668;2023-03-05T01:51:04;9.67;;;5.40;;
21601;SDS011;10963;50.934;4.668;2023-03-05T01:53:31;7.37;;;4.40;;
21601;SDS011;10963;50.934;4.668;2023-03-05T01:55:57;10.63;;;5.50;;
21601;SDS011;10963;50.934;4.668;2023-03-05T01:58:25;9.77;;;4.60;;
21601;SDS011;10963;50.934;4.668;2023-03-05T02:00:51;8.67;;;5.00;;
21601;SDS011;10963;50.934;4.668;2023-03-05T02:03:19;8.30;;;5.03;;
21601;SDS011;10963;50.934;4.668;2023-03-05T02:05:47;8.77;;;5.53;;
21601;SDS011;10963;50.934;4.668;2023-03-05T02:08:14;9.70;;;5.63;;
21601;SDS011;10963;50.934;4.668;2023-03-05T02:10:43;9.50;;;5.30;;
21601;SDS011;10963;50.934;4.668;2023-03-05T02:13:13;10.53;;;5.37;;
21601;SDS011;10963;50.934;4.668;2023-03-05T02:15:46;9.10;;;4.77;;
21601;SDS011;10963;50.934;4.668;2023-03-05T02:18:14;13.50;;;6.00;;
21601;SDS011;10963;50.934;4.668;2023-03-05T02:20:45;9.57;;;5.67;;
21601;SDS011;10963;50.934;4.668;2023-03-05T02:23:14;11.67;;;6.10;;
21601;SDS011;10963;50.934;4.668;2023-03-05T02:25:43;11.67;;;5.20;;
21601;SDS011;10963;50.934;4.668;2023-03-05T02:30:47;13.43;;;6.07;;
21601;SDS011;10963;50.934;4.668;2023-03-05T02:33:15;11.50;;;6.67;;
21601;SDS011;10963;50.934;4.668;2023-03-05T02:35:42;13.70;;;6.27;;
21601;SDS011;10963;50.934;4.668;2023-03-05T02:38:16;12.90;;;6.93;;
21601;SDS011;10963;50.934;4.668;2023-03-05T02:40:43;12.13;;;6.30;;
21601;SDS011;10963;50.934;4.668;2023-03-05T02:43:12;8.30;;;5.97;;
21601;SDS011;10963;50.934;4.668;2023-03-05T02:45:38;15.30;;;6.60;;
21601;SDS011;10963;50.934;4.668;2023-03-05T02:48:04;10.93;;;6.27;;
21601;SDS011;10963;50.934;4.668;2023-03-05T02:50:30;17.73;;;6.60;;
21601;SDS011;10963;50.934;4.668;2023-03-05T02:52:56;14.43;;;6.93;;
21601;SDS011;10963;50.934;4.668;2023-03-05T02:55:27;14.07;;;6.90;;
21601;SDS011;10963;50.934;4.668;2023-03-05T02:57:52;12.40;;;6.80;;
21601;SDS011;10963;50.934;4.668;2023-03-05T03:00:18;15.40;;;7.70;;
21601;SDS011;10963;50.934;4.668;2023-03-05T03:02:46;10.57;;;6.60;;
21601;SDS011;10963;50.934;4.668;2023-03-05T03:05:12;13.53;;;7.17;;
21601;SDS011;10963;50.934;4.668;2023-03-05T03:07:40;12.13;;;6.57;;
21601;SDS011;10963;50.934;4.668;2023-03-05T03:10:08;14.00;;;6.97;;
21601;SDS011;10963;50.934;4.668;2023-03-05T03:12:41;15.00;;;7.60;;
21601;SDS011;10963;50.934;4.668;2023-03-05T03:15:11;10.77;;;6.67;;
21601;SDS011;10963;50.934;4.668;2023-03-05T03:17:42;18.03;;;7.27;;
21601;SDS011;10963;50.934;4.668;2023-03-05T03:20:09;12.30;;;6.80;;
21601;SDS011;10963;50.934;4.668;2023-03-05T03:22:39;11.83;;;7.13;;
21601;SDS011;10963;50.934;4.668;2023-03-05T03:25:06;12.90;;;7.30;;
21601;SDS011;10963;50.934;4.668;2023-03-05T03:27:32;13.70;;;7.50;;
21601;SDS011;10963;50.934;4.668;2023-03-05T03:30:00;19.33;;;7.40;;
21601;SDS011;10963;50.934;4.668;2023-03-05T03:32:29;15.77;;;7.60;;
21601;SDS011;10963;50.934;4.668;2023-03-05T03:34:58;12.33;;;6.47;;
21601;SDS011;10963;50.934;4.668;2023-03-05T03:37:26;17.87;;;7.17;;
21601;SDS011;10963;50.934;4.668;2023-03-05T03:39:54;17.03;;;7.20;;
21601;SDS011;10963;50.934;4.668;2023-03-05T03:42:20;14.43;;;7.63;;
21601;SDS011;10963;50.934;4.668;2023-03-05T03:44:47;13.30;;;7.33;;
21601;SDS011;10963;50.934;4.668;2023-03-05T03:47:13;13.23;;;7.57;;
21601;SDS011;10963;50.934;4.668;2023-03-05T03:49:41;18.13;;;7.57;;
21601;SDS011;10963;50.934;4.668;2023-03-05T03:52:07;13.63;;;7.23;;
21601;SDS011;10963;50.934;4.668;2023-03-05T03:54:35;14.80;;;7.50;;
21601;SDS011;10963;50.934;4.668;2023-03-05T03:57:01;11.77;;;7.23;;
21601;SDS011;10963;50.934;4.668;2023-03-05T03:59:29;12.00;;;7.57;;
21601;SDS011;10963;50.934;4.668;2023-03-05T04:01:57;15.27;;;6.83;;
21601;SDS011;10963;50.934;4.668;2023-03-05T04:04:23;13.23;;;7.43;;
21601;SDS011;10963;50.934;4.668;2023-03-05T04:06:52;19.03;;;7.03;;
21601;SDS011;10963;50.934;4.668;2023-03-05T04:09:18;15.90;;;7.33;;
21601;SDS011;10963;50.934;4.668;2023-03-05T04:11:46;13.07;;;6.97;;
21601;SDS011;10963;50.934;4.668;2023-03-05T04:14:12;11.33;;;6.80;;
21601;SDS011;10963;50.934;4.668;2023-03-05T04:16:42;13.93;;;6.00;;
21601;SDS011;10963;50.934;4.668;2023-03-05T04:19:10;14.90;;;6.83;;
21601;SDS011;10963;50.934;4.668;2023-03-05T04:21:36;14.03;;;7.20;;
21601;SDS011;10963;50.934;4.668;2023-03-05T04:24:02;9.37;;;6.27;;
21601;SDS011;10963;50.934;4.668;2023-03-05T04:26:28;14.00;;;6.67;;
21601;SDS011;10963;50.934;4.668;2023-03-05T04:28:58;14.47;;;7.13;;
21601;SDS011;10963;50.934;4.668;2023-03-05T04:31:24;10.90;;;6.63;;
21601;SDS011;10963;50.934;4.668;2023-03-05T04:33:49;10.77;;;6.17;;
21601;SDS011;10963;50.934;4.668;2023-03-05T04:36:15;12.60;;;6.70;;
21601;SDS011;10963;50.934;4.668;2023-03-05T04:38:43;17.43;;;6.40;;
21601;SDS011;10963;50.934;4.668;2023-03-05T04:41:12;13.83;;;7.07;;
21601;SDS011;10963;50.934;4.668;2023-03-05T04:43:37;10.27;;;6.53;;
21601;SDS011;10963;50.934;4.668;2023-03-05T04:46:03;13.77;;;6.57;;
21601;SDS011;10963;50.934;4.668;2023-03-05T04:48:29;13.63;;;6.00;;
21601;SDS011;10963;50.934;4.668;2023-03-05T04:50:55;9.60;;;6.10;;
21601;SDS011;10963;50.934;4.668;2023-03-05T04:53:22;17.70;;;6.73;;
21601;SDS011;10963;50.934;4.668;2023-03-05T04:55:54;12.90;;;6.20;;
21601;SDS011;10963;50.934;4.668;2023-03-05T04:58:25;9.37;;;6.00;;
21601;SDS011;10963;50.934;4.668;2023-03-05T05:00:51;17.33;;;7.27;;
21601;SDS011;10963;50.934;4.668;2023-03-05T05:03:17;16.07;;;7.10;;
21601;SDS011;10963;50.934;4.668;2023-03-05T05:05:43;14.30;;;6.50;;
21601;SDS011;10963;50.934;4.668;2023-03-05T05:08:09;13.17;;;6.57;;
21601;SDS011;10963;50.934;4.668;2023-03-05T05:10:37;15.87;;;6.27;;
21601;SDS011;10963;50.934;4.668;2023-03-05T05:13:04;13.17;;;7.07;;
21601;SDS011;10963;50.934;4.668;2023-03-05T05:15:30;14.37;;;7.60;;
21601;SDS011;10963;50.934;4.668;2023-03-05T05:17:56;14.53;;;7.13;;
21601;SDS011;10963;50.934;4.668;2023-03-05T05:20:22;17.07;;;6.90;;
21601;SDS011;10963;50.934;4.668;2023-03-05T05:22:50;12.47;;;7.03;;
21601;SDS011;10963;50.934;4.668;2023-03-05T05:25:18;15.50;;;7.10;;
21601;SDS011;10963;50.934;4.668;2023-03-05T05:27:43;11.17;;;6.87;;
21601;SDS011;10963;50.934;4.668;2023-03-05T05:30:09;15.37;;;7.17;;
21601;SDS011;10963;50.934;4.668;2023-03-05T05:32:35;13.60;;;7.20;;
21601;SDS011;10963;50.934;4.668;2023-03-05T05:35:02;13.77;;;7.63;;
21601;SDS011;10963;50.934;4.668;2023-03-05T05:37:27;16.20;;;6.80;;
21601;SDS011;10963;50.934;4.668;2023-03-05T05:39:53;14.13;;;6.70;;
21601;SDS011;10963;50.934;4.668;2023-03-05T05:42:22;14.07;;;7.67;;
21601;SDS011;10963;50.934;4.668;2023-03-05T05:44:51;16.77;;;7.63;;
21601;SDS011;10963;50.934;4.668;2023-03-05T05:47:17;15.63;;;7.33;;
21601;SDS011;10963;50.934;4.668;2023-03-05T05:49:43;11.93;;;7.40;;
21601;SDS011;10963;50.934;4.668;2023-03-05T05:52:09;15.97;;;8.13;;
21601;SDS011;10963;50.934;4.668;2023-03-05T05:54:37;13.83;;;7.70;;
21601;SDS011;10963;50.934;4.668;2023-03-05T05:57:05;20.53;;;8.20;;
21601;SDS011;10963;50.934;4.668;2023-03-05T05:59:37;15.13;;;8.40;;
21601;SDS011;10963;50.934;4.668;2023-03-05T06:02:05;14.90;;;7.90;;
21601;SDS011;10963;50.934;4.668;2023-03-05T06:04:35;18.23;;;8.60;;
21601;SDS011;10963;50.934;4.668;2023-03-05T06:07:00;14.27;;;7.50;;
21601;SDS011;10963;50.934;4.668;2023-03-05T06:09:28;14.17;;;8.17;;
21601;SDS011;10963;50.934;4.668;2023-03-05T06:11:56;12.90;;;7.37;;
21601;SDS011;10963;50.934;4.668;2023-03-05T06:14:26;13.50;;;7.33;;
21601;SDS011;10963;50.934;4.668;2023-03-05T06:16:52;13.87;;;7.83;;
21601;SDS011;10963;50.934;4.668;2023-03-05T06:19:20;10.57;;;7.63;;
21601;SDS011;10963;50.934;4.668;2023-03-05T06:21:45;14.33;;;7.43;;
21601;SDS011;10963;50.934;4.668;2023-03-05T06:24:11;12.43;;;7.10;;
21601;SDS011;10963;50.934;4.668;2023-03-05T06:26:39;13.97;;;8.07;;
21601;SDS011;10963;50.934;4.668;2023-03-05T06:29:07;14.97;;;7.60;;
21601;SDS011;10963;50.934;4.668;2023-03-05T06:31:36;14.60;;;8.43;;
21601;SDS011;10963;50.934;4.668;2023-03-05T06:34:02;14.03;;;6.70;;
21601;SDS011;10963;50.934;4.668;2023-03-05T06:36:30;12.30;;;7.57;;
21601;SDS011;10963;50.934;4.668;2023-03-05T06:38:56;14.77;;;7.83;;
21601;SDS011;10963;50.934;4.668;2023-03-05T06:41:24;21.27;;;7.57;;
21601;SDS011;10963;50.934;4.668;2023-03-05T06:43:52;11.13;;;7.27;;
21601;SDS011;10963;50.934;4.668;2023-03-05T06:46:23;16.33;;;7.43;;
21601;SDS011;10963;50.934;4.668;2023-03-05T06:48:51;12.73;;;7.73;;
21601;SDS011;10963;50.934;4.668;2023-03-05T06:51:32;13.67;;;7.70;;
21601;SDS011;10963;50.934;4.668;2023-03-05T06:54:00;12.47;;;7.27;;
21601;SDS011;10963;50.934;4.668;2023-03-05T06:56:31;14.77;;;7.03;;
21601;SDS011;10963;50.934;4.668;2023-03-05T06:58:59;17.17;;;7.63;;
21601;SDS011;10963;50.934;4.668;2023-03-05T07:01:25;18.67;;;8.30;;
21601;SDS011;10963;50.934;4.668;2023-03-05T07:03:52;11.80;;;7.00;;
21601;SDS011;10963;50.934;4.668;2023-03-05T07:06:19;11.97;;;7.37;;
21601;SDS011;10963;50.934;4.668;2023-03-05T07:08:46;16.03;;;7.93;;
21601;SDS011;10963;50.934;4.668;2023-03-05T07:11:17;17.57;;;7.37;;
21601;SDS011;10963;50.934;4.668;2023-03-05T07:13:47;18.37;;;8.50;;
21601;SDS011;10963;50.934;4.668;2023-03-05T07:16:16;15.33;;;8.07;;
21601;SDS011;10963;50.934;4.668;2023-03-05T07:18:46;15.87;;;8.13;;
21601;SDS011;10963;50.934;4.668;2023-03-05T07:21:20;20.97;;;7.87;;
21601;SDS011;10963;50.934;4.668;2023-03-05T07:23:48;13.18;;;8.82;;
21601;SDS011;10963;50.934;4.668;2023-03-05T07:26:14;14.70;;;8.93;;
21601;SDS011;10963;50.934;4.668;2023-03-05T07:28:40;16.77;;;8.93;;
21601;SDS011;10963;50.934;4.668;2023-03-05T07:31:15;18.27;;;8.93;;
21601;SDS011;10963;50.934;4.668;2023-03-05T07:33:46;15.03;;;8.70;;
21601;SDS011;10963;50.934;4.668;2023-03-05T07:36:17;11.27;;;7.70;;
21601;SDS011;10963;50.934;4.668;2023-03-05T07:38:43;15.73;;;8.10;;
21601;SDS011;10963;50.934;4.668;2023-03-05T07:41:10;17.67;;;8.20;;
21601;SDS011;10963;50.934;4.668;2023-03-05T07:43:43;16.87;;;9.37;;
21601;SDS011;10963;50.934;4.668;2023-03-05T07:46:13;13.57;;;8.00;;
21601;SDS011;10963;50.934;4.668;2023-03-05T07:48:44;12.00;;;7.87;;
21601;SDS011;10963;50.934;4.668;2023-03-05T07:51:13;14.00;;;7.47;;
21601;SDS011;10963;50.934;4.668;2023-03-05T07:53:41;15.50;;;7.43;;
21601;SDS011;10963;50.934;4.668;2023-03-05T07:56:08;12.17;;;7.43;;
21601;SDS011;10963;50.934;4.668;2023-03-05T07:58:34;12.50;;;7.43;;
21601;SDS011;10963;50.934;4.668;2023-03-05T08:00:59;10.00;;;6.53;;
21601;SDS011;10963;50.934;4.668;2023-03-05T08:03:25;18.13;;;7.30;;
21601;SDS011;10963;50.934;4.668;2023-03-05T08:05:53;15.47;;;7.43;;
21601;SDS011;10963;50.934;4.668;2023-03-05T08:08:22;10.30;;;6.20;;
21601;SDS011;10963;50.934;4.668;2023-03-05T08:10:47;12.27;;;6.60;;
21601;SDS011;10963;50.934;4.668;2023-03-05T08:13:13;11.23;;;6.57;;
21601;SDS011;10963;50.934;4.668;2023-03-05T08:15:39;12.50;;;6.47;;
21601;SDS011;10963;50.934;4.668;2023-03-05T08:18:04;11.10;;;6.43;;
21601;SDS011;10963;50.934;4.668;2023-03-05T08:20:33;10.40;;;5.67;;
21601;SDS011;10963;50.934;4.668;2023-03-05T08:23:01;10.07;;;6.73;;
21601;SDS011;10963;50.934;4.668;2023-03-05T08:25:30;9.80;;;6.33;;
21601;SDS011;10963;50.934;4.668;2023-03-05T08:27:56;11.10;;;7.10;;
21601;SDS011;10963;50.934;4.668;2023-03-05T08:30:27;14.57;;;6.87;;
21601;SDS011;10963;50.934;4.668;2023-03-05T08:32:55;12.43;;;5.57;;
21601;SDS011;10963;50.934;4.668;2023-03-05T08:35:21;7.37;;;5.63;;
21601;SDS011;10963;50.934;4.668;2023-03-05T08:37:47;8.53;;;5.27;;
21601;SDS011;10963;50.934;4.668;2023-03-05T08:40:13;10.87;;;6.10;;
21601;SDS011;10963;50.934;4.668;2023-03-05T08:42:42;12.67;;;6.47;;
21601;SDS011;10963;50.934;4.668;2023-03-05T08:45:10;11.97;;;6.50;;
21601;SDS011;10963;50.934;4.668;2023-03-05T08:47:38;12.93;;;6.33;;
21601;SDS011;10963;50.934;4.668;2023-03-05T08:50:04;12.53;;;6.30;;
21601;SDS011;10963;50.934;4.668;2023-03-05T08:52:30;11.43;;;7.37;;
21601;SDS011;10963;50.934;4.668;2023-03-05T08:54:56;9.23;;;6.17;;
21601;SDS011;10963;50.934;4.668;2023-03-05T08:57:26;13.33;;;8.57;;
21601;SDS011;10963;50.934;4.668;2023-03-05T08:59:52;14.43;;;10.57;;
21601;SDS011;10963;50.934;4.668;2023-03-05T09:02:17;11.27;;;5.93;;
21601;SDS011;10963;50.934;4.668;2023-03-05T09:04:43;12.27;;;8.63;;
21601;SDS011;10963;50.934;4.668;2023-03-05T09:07:09;12.23;;;7.07;;
21601;SDS011;10963;50.934;4.668;2023-03-05T09:09:37;10.40;;;6.73;;
21601;SDS011;10963;50.934;4.668;2023-03-05T09:12:03;13.40;;;8.10;;
21601;SDS011;10963;50.934;4.668;2023-03-05T09:14:28;13.67;;;8.13;;
21601;SDS011;10963;50.934;4.668;2023-03-05T09:16:55;13.97;;;8.50;;
21601;SDS011;10963;50.934;4.668;2023-03-05T09:19:21;11.47;;;7.40;;
21601;SDS011;10963;50.934;4.668;2023-03-05T09:21:47;13.60;;;8.97;;
21601;SDS011;10963;50.934;4.668;2023-03-05T09:24:16;14.30;;;9.03;;
21601;SDS011;10963;50.934;4.668;2023-03-05T09:26:44;12.40;;;8.53;;
21601;SDS011;10963;50.934;4.668;2023-03-05T09:29:10;12.57;;;8.90;;
21601;SDS011;10963;50.934;4.668;2023-03-05T09:31:39;13.87;;;9.17;;
21601;SDS011;10963;50.934;4.668;2023-03-05T09:34:04;14.00;;;9.53;;
21601;SDS011;10963;50.934;4.668;2023-03-05T09:36:32;14.13;;;9.30;;
21601;SDS011;10963;50.934;4.668;2023-03-05T09:39:00;13.03;;;8.50;;
21601;SDS011;10963;50.934;4.668;2023-03-05T09:41:28;12.50;;;7.87;;
21601;SDS011;10963;50.934;4.668;2023-03-05T09:55:51;7.90;;;5.03;;
21601;SDS011;10963;50.934;4.668;2023-03-05T09:58:05;6.33;;;4.80;;
21601;SDS011;10963;50.934;4.668;2023-03-05T10:00:44;4.93;;;4.10;;
21601;SDS011;10963;50.934;4.668;2023-03-05T10:06:04;6.53;;;4.13;;
21601;SDS011;10963;50.934;4.668;2023-03-05T10:08:43;7.93;;;3.90;;
21601;SDS011;10963;50.934;4.668;2023-03-05T10:11:33;5.77;;;3.07;;
21601;SDS011;10963;50.934;4.668;2023-03-05T10:14:01;8.10;;;3.47;;
21601;SDS011;10963;50.934;4.668;2023-03-05T10:24:17;2.73;;;2.10;;
21601;SDS011;10963;50.934;4.668;2023-03-05T10:35:27;4.60;;;1.93;;
21601;SDS011;10963;50.934;4.668;2023-03-05T10:40:51;3.13;;;1.90;;
21601;SDS011;10963;50.934;4.668;2023-03-05T10:43:38;3.27;;;2.40;;
21601;SDS011;10963;50.934;4.668;2023-03-05T10:46:11;4.73;;;2.67;;
21601;SDS011;10963;50.934;4.668;2023-03-05T10:54:28;5.57;;;3.63;;
21601;SDS011;10963;50.934;4.668;2023-03-05T10:59:36;3.10;;;2.80;;
21601;SDS011;10963;50.934;4.668;2023-03-05T11:02:04;4.80;;;2.97;;
21601;SDS011;10963;50.934;4.668;2023-03-05T11:04:34;4.60;;;2.60;;
21601;SDS011;10963;50.934;4.668;2023-03-05T11:09:45;3.37;;;2.83;;
21601;SDS011;10963;50.934;4.668;2023-03-05T11:12:35;3.60;;;2.73;;
21601;SDS011;10963;50.934;4.668;2023-03-05T11:17:38;4.43;;;2.70;;
21601;SDS011;10963;50.934;4.668;2023-03-05T11:28:26;2.80;;;2.50;;
21601;SDS011;10963;50.934;4.668;2023-03-05T11:38:58;5.70;;;2.83;;
21601;SDS011;10963;50.934;4.668;2023-03-05T11:41:29;2.90;;;2.23;;
21601;SDS011;10963;50.934;4.668;2023-03-05T11:44:14;5.53;;;2.20;;
21601;SDS011;10963;50.934;4.668;2023-03-05T11:46:56;4.10;;;2.33;;
21601;SDS011;10963;50.934;4.668;2023-03-05T11:49:24;3.27;;;2.17;;
21601;SDS011;10963;50.934;4.668;2023-03-05T11:54:28;3.37;;;1.90;;
21601;SDS011;10963;50.934;4.668;2023-03-05T11:57:03;2.93;;;1.73;;
21601;SDS011;10963;50.934;4.668;2023-03-05T11:59:36;3.20;;;2.10;;
21601;SDS011;10963;50.934;4.668;2023-03-05T12:02:08;5.43;;;1.73;;
21601;SDS011;10963;50.934;4.668;2023-03-05T12:04:44;5.17;;;2.00;;
21601;SDS011;10963;50.934;4.668;2023-03-05T12:07:11;4.23;;;2.00;;
21601;SDS011;10963;50.934;4.668;2023-03-05T12:09:42;4.27;;;1.57;;
21601;SDS011;10963;50.934;4.668;2023-03-05T12:20:13;4.40;;;1.60;;
21601;SDS011;10963;50.934;4.668;2023-03-05T12:22:51;3.73;;;1.37;;
21601;SDS011;10963;50.934;4.668;2023-03-05T12:28:01;3.43;;;1.53;;
21601;SDS011;10963;50.934;4.668;2023-03-05T12:33:04;1.80;;;1.63;;
21601;SDS011;10963;50.934;4.668;2023-03-05T12:35:36;2.00;;;1.87;;
21601;SDS011;10963;50.934;4.668;2023-03-05T12:38:18;2.87;;;2.17;;
21601;SDS011;10963;50.934;4.668;2023-03-05T12:51:55;5.80;;;3.27;;
21601;SDS011;10963;50.934;4.668;2023-03-05T12:56:54;5.00;;;3.20;;
21601;SDS011;10963;50.934;4.668;2023-03-05T12:59:23;4.07;;;2.83;;
21601;SDS011;10963;50.934;4.668;2023-03-05T13:02:00;7.00;;;3.23;;
21601;SDS011;10963;50.934;4.668;2023-03-05T13:04:33;5.87;;;3.20;;
21601;SDS011;10963;50.934;4.668;2023-03-05T13:07:11;7.27;;;3.57;;
21601;SDS011;10963;50.934;4.668;2023-03-05T13:09:39;4.30;;;3.27;;
21601;SDS011;10963;50.934;4.668;2023-03-05T13:12:10;7.17;;;3.93;;
21601;SDS011;10963;50.934;4.668;2023-03-05T13:14:41;9.70;;;4.47;;
21601;SDS011;10963;50.934;4.668;2023-03-05T13:17:24;11.20;;;6.10;;
21601;SDS011;10963;50.934;4.668;2023-03-05T13:19:59;10.77;;;7.23;;
21601;SDS011;10963;50.934;4.668;2023-03-05T13:22:26;10.73;;;7.53;;
21601;SDS011;10963;50.934;4.668;2023-03-05T13:25:15;12.63;;;7.93;;
21601;SDS011;10963;50.934;4.668;2023-03-05T13:27:48;12.13;;;7.33;;
21601;SDS011;10963;50.934;4.668;2023-03-05T13:30:22;9.13;;;6.00;;
21601;SDS011;10963;50.934;4.668;2023-03-05T13:32:53;8.87;;;6.20;;
21601;SDS011;10963;50.934;4.668;2023-03-05T13:35:24;7.37;;;6.10;;
21601;SDS011;10963;50.934;4.668;2023-03-05T13:37:50;6.10;;;4.77;;
21601;SDS011;10963;50.934;4.668;2023-03-05T13:40:27;7.10;;;3.93;;
21601;SDS011;10963;50.934;4.668;2023-03-05T13:43:07;3.73;;;2.97;;
21601;SDS011;10963;50.934;4.668;2023-03-05T13:45:37;3.37;;;3.00;;
21601;SDS011;10963;50.934;4.668;2023-03-05T13:48:05;3.70;;;2.83;;
21601;SDS011;10963;50.934;4.668;2023-03-05T13:55:46;4.10;;;2.90;;
21601;SDS011;10963;50.934;4.668;2023-03-05T14:03:50;4.43;;;3.07;;
21601;SDS011;10963;50.934;4.668;2023-03-05T14:06:18;3.70;;;2.60;;
21601;SDS011;10963;50.934;4.668;2023-03-05T14:08:53;5.63;;;2.50;;
21601;SDS011;10963;50.934;4.668;2023-03-05T14:11:25;4.17;;;2.47;;
21601;SDS011;10963;50.934;4.668;2023-03-05T14:13:57;4.33;;;2.63;;
21601;SDS011;10963;50.934;4.668;2023-03-05T14:16:30;3.93;;;2.33;;
21601;SDS011;10963;50.934;4.668;2023-03-05T14:18:58;4.23;;;2.70;;
21601;SDS011;10963;50.934;4.668;2023-03-05T14:21:52;2.97;;;2.67;;
21601;SDS011;10963;50.934;4.668;2023-03-05T14:24:20;4.77;;;3.00;;
21601;SDS011;10963;50.934;4.668;2023-03-05T14:26:53;3.87;;;3.40;;
21601;SDS011;10963;50.934;4.668;2023-03-05T14:29:27;5.03;;;4.23;;
21601;SDS011;10963;50.934;4.668;2023-03-05T14:31:55;4.90;;;4.40;;
21601;SDS011;10963;50.934;4.668;2023-03-05T14:34:33;8.17;;;4.67;;
21601;SDS011;10963;50.934;4.668;2023-03-05T14:37:06;7.83;;;5.00;;
21601;SDS011;10963;50.934;4.668;2023-03-05T14:39:55;5.17;;;4.67;;
21601;SDS011;10963;50.934;4.668;2023-03-05T14:44:58;6.13;;;4.60;;
21601;SDS011;10963;50.934;4.668;2023-03-05T14:47:28;7.90;;;5.77;;
21601;SDS011;10963;50.934;4.668;2023-03-05T14:49:54;9.87;;;5.57;;
21601;SDS011;10963;50.934;4.668;2023-03-05T14:52:21;8.10;;;5.23;;
21601;SDS011;10963;50.934;4.668;2023-03-05T14:54:52;9.53;;;5.93;;
21601;SDS011;10963;50.934;4.668;2023-03-05T14:57:19;9.67;;;5.90;;
21601;SDS011;10963;50.934;4.668;2023-03-05T14:59:47;10.20;;;5.40;;
21601;SDS011;10963;50.934;4.668;2023-03-05T15:02:14;9.13;;;5.73;;
21601;SDS011;10963;50.934;4.668;2023-03-05T15:04:42;11.43;;;7.13;;
21601;SDS011;10963;50.934;4.668;2023-03-05T15:07:29;10.97;;;6.70;;
21601;SDS011;10963;50.934;4.668;2023-03-05T15:09:56;13.57;;;7.03;;
21601;SDS011;10963;50.934;4.668;2023-03-05T15:12:23;9.93;;;6.97;;
21601;SDS011;10963;50.934;4.668;2023-03-05T15:14:50;11.90;;;6.80;;
21601;SDS011;10963;50.934;4.668;2023-03-05T15:17:25;11.20;;;6.83;;
21601;SDS011;10963;50.934;4.668;2023-03-05T15:20:00;11.03;;;6.20;;
21601;SDS011;10963;50.934;4.668;2023-03-05T15:22:31;8.17;;;5.80;;
21601;SDS011;10963;50.934;4.668;2023-03-05T15:25:01;12.97;;;6.90;;
21601;SDS011;10963;50.934;4.668;2023-03-05T15:27:27;10.07;;;6.77;;
21601;SDS011;10963;50.934;4.668;2023-03-05T15:29:53;13.17;;;6.90;;
21601;SDS011;10963;50.934;4.668;2023-03-05T15:32:19;10.27;;;7.20;;
21601;SDS011;10963;50.934;4.668;2023-03-05T15:34:45;8.60;;;6.27;;
21601;SDS011;10963;50.934;4.668;2023-03-05T15:37:16;11.90;;;7.60;;
21601;SDS011;10963;50.934;4.668;2023-03-05T15:39:41;9.93;;;6.90;;
21601;SDS011;10963;50.934;4.668;2023-03-05T15:42:12;9.57;;;6.53;;
21601;SDS011;10963;50.934;4.668;2023-03-05T15:44:37;7.43;;;4.63;;
21601;SDS011;10963;50.934;4.668;2023-03-05T15:47:04;8.90;;;4.73;;
21601;SDS011;10963;50.934;4.668;2023-03-05T15:49:30;6.10;;;4.30;;
21601;SDS011;10963;50.934;4.668;2023-03-05T15:51:56;10.33;;;4.03;;
21601;SDS011;10963;50.934;4.668;2023-03-05T15:54:24;9.23;;;4.60;;
21601;SDS011;10963;50.934;4.668;2023-03-05T15:56:52;6.83;;;4.37;;
21601;SDS011;10963;50.934;4.668;2023-03-05T15:59:18;6.83;;;4.17;;
21601;SDS011;10963;50.934;4.668;2023-03-05T16:01:46;8.10;;;4.23;;
21601;SDS011;10963;50.934;4.668;2023-03-05T16:04:15;8.40;;;3.97;;
21601;SDS011;10963;50.934;4.668;2023-03-05T16:06:42;6.97;;;3.27;;
21601;SDS011;10963;50.934;4.668;2023-03-05T16:09:13;8.03;;;3.40;;
21601;SDS011;10963;50.934;4.668;2023-03-05T16:11:40;6.30;;;3.83;;
21601;SDS011;10963;50.934;4.668;2023-03-05T16:14:11;7.47;;;4.10;;
21601;SDS011;10963;50.934;4.668;2023-03-05T16:16:45;5.70;;;4.10;;
21601;SDS011;10963;50.934;4.668;2023-03-05T16:19:16;7.00;;;4.23;;
21601;SDS011;10963;50.934;4.668;2023-03-05T16:21:45;8.37;;;4.60;;
21601;SDS011;10963;50.934;4.668;2023-03-05T16:24:14;6.40;;;4.60;;
21601;SDS011;10963;50.934;4.668;2023-03-05T16:26:39;6.10;;;4.53;;
21601;SDS011;10963;50.934;4.668;2023-03-05T16:29:06;8.00;;;4.77;;
21601;SDS011;10963;50.934;4.668;2023-03-05T16:31:32;5.17;;;3.97;;
21601;SDS011;10963;50.934;4.668;2023-03-05T16:34:02;7.60;;;3.93;;
21601;SDS011;10963;50.934;4.668;2023-03-05T16:36:29;7.40;;;4.50;;
21601;SDS011;10963;50.934;4.668;2023-03-05T16:38:56;6.80;;;3.60;;
21601;SDS011;10963;50.934;4.668;2023-03-05T16:41:24;7.90;;;3.83;;
21601;SDS011;10963;50.934;4.668;2023-03-05T16:43:55;7.27;;;4.00;;